Allred, Tennessee
Current Conditions -  °F | °C
As of 1:53 AM on Tuesday 21 Oct 2014 (Local Time) from KCSV Reporting Station
Scattered Clouds Scattered Clouds  
Wind Chill: 52°   Ceiling: Unl
Heat Index: 52°   Visibility: 10mi
Dew Point: 46°   Wind: 7mph
Humidity: 80%   Direction: 250°WSW
Pressure: 30.02"   Gusts: NA
Location:  36.33°N, 85.19°W
Report Text: KCSV 210653Z AUTO 25006KT 10SM FEW050 SCT070 11/08 A3002 RMK AO2 SLP156 T01110078
Loading
Personal Weather Stations






























Interactive Weather Map New forecast layout! Learn more

10-Day Weather Forecast

Advertisements
Track Severe Weather on mobile